sensor_id;sensor_type;location;lat;lon;timestamp;temperature;humidity
56512;DHT22;42408;53.238;5.686;2023-08-06T00:00:17;14.40;99.90
56512;DHT22;42408;53.238;5.686;2023-08-06T00:02:43;14.40;99.90
56512;DHT22;42408;53.238;5.686;2023-08-06T00:05:08;14.40;99.90
56512;DHT22;42408;53.238;5.686;2023-08-06T00:07:34;14.50;99.90
56512;DHT22;42408;53.238;5.686;2023-08-06T00:10:00;14.50;99.90
56512;DHT22;42408;53.238;5.686;2023-08-06T00:12:25;14.40;99.90
56512;DHT22;42408;53.238;5.686;2023-08-06T00:14:52;14.50;99.90
56512;DHT22;42408;53.238;5.686;2023-08-06T00:17:18;14.40;99.90
56512;DHT22;42408;53.238;5.686;2023-08-06T00:19:44;14.50;99.90
56512;DHT22;42408;53.238;5.686;2023-08-06T00:22:09;14.40;99.90
56512;DHT22;42408;53.238;5.686;2023-08-06T00:24:35;14.50;99.90
56512;DHT22;42408;53.238;5.686;2023-08-06T00:27:01;14.50;99.90
56512;DHT22;42408;53.238;5.686;2023-08-06T00:29:27;14.50;99.90
56512;DHT22;42408;53.238;5.686;2023-08-06T00:31:53;14.40;99.90
56512;DHT22;42408;53.238;5.686;2023-08-06T00:34:18;14.50;99.90
56512;DHT22;42408;53.238;5.686;2023-08-06T00:36:44;14.40;99.90
56512;DHT22;42408;53.238;5.686;2023-08-06T00:39:10;14.40;99.90
56512;DHT22;42408;53.238;5.686;2023-08-06T00:41:36;14.40;99.90
56512;DHT22;42408;53.238;5.686;2023-08-06T00:44:02;14.40;99.90
56512;DHT22;42408;53.238;5.686;2023-08-06T00:46:27;14.40;99.90
56512;DHT22;42408;53.238;5.686;2023-08-06T00:48:53;14.40;99.90
56512;DHT22;42408;53.238;5.686;2023-08-06T00:51:20;14.50;99.90
56512;DHT22;42408;53.238;5.686;2023-08-06T00:53:46;14.40;99.90
56512;DHT22;42408;53.238;5.686;2023-08-06T00:56:13;14.40;99.90
56512;DHT22;42408;53.238;5.686;2023-08-06T00:58:39;14.40;99.90
56512;DHT22;42408;53.238;5.686;2023-08-06T01:01:05;14.40;99.90
56512;DHT22;42408;53.238;5.686;2023-08-06T01:03:31;14.50;99.90
56512;DHT22;42408;53.238;5.686;2023-08-06T01:05:57;14.50;99.90
56512;DHT22;42408;53.238;5.686;2023-08-06T01:08:28;14.50;99.90
56512;DHT22;42408;53.238;5.686;2023-08-06T01:11:08;14.50;99.90
56512;DHT22;42408;53.238;5.686;2023-08-06T01:13:52;14.50;99.90
56512;DHT22;42408;53.238;5.686;2023-08-06T01:16:21;14.50;99.90
56512;DHT22;42408;53.238;5.686;2023-08-06T01:18:48;14.50;99.90
56512;DHT22;42408;53.238;5.686;2023-08-06T01:21:18;14.50;99.90
56512;DHT22;42408;53.238;5.686;2023-08-06T01:23:45;14.50;99.90
56512;DHT22;42408;53.238;5.686;2023-08-06T01:29:07;14.50;99.90
56512;DHT22;42408;53.238;5.686;2023-08-06T01:31:37;14.50;99.90
56512;DHT22;42408;53.238;5.686;2023-08-06T01:34:07;14.50;99.90
56512;DHT22;42408;53.238;5.686;2023-08-06T01:36:34;14.50;99.90
56512;DHT22;42408;53.238;5.686;2023-08-06T01:39:00;14.50;99.90
56512;DHT22;42408;53.238;5.686;2023-08-06T01:41:26;14.50;99.90
56512;DHT22;42408;53.238;5.686;2023-08-06T01:43:51;14.50;99.90
56512;DHT22;42408;53.238;5.686;2023-08-06T01:46:17;14.50;99.90
56512;DHT22;42408;53.238;5.686;2023-08-06T01:48:43;14.50;99.90
56512;DHT22;42408;53.238;5.686;2023-08-06T01:51:08;14.50;99.90
56512;DHT22;42408;53.238;5.686;2023-08-06T01:53:34;14.50;99.90
56512;DHT22;42408;53.238;5.686;2023-08-06T01:56:00;14.50;99.90
56512;DHT22;42408;53.238;5.686;2023-08-06T01:58:25;14.50;99.90
56512;DHT22;42408;53.238;5.686;2023-08-06T02:00:51;14.50;99.90
56512;DHT22;42408;53.238;5.686;2023-08-06T02:03:17;14.50;99.90
56512;DHT22;42408;53.238;5.686;2023-08-06T02:05:43;14.50;99.90
56512;DHT22;42408;53.238;5.686;2023-08-06T02:08:08;14.50;99.90
56512;DHT22;42408;53.238;5.686;2023-08-06T02:10:34;14.50;99.90
56512;DHT22;42408;53.238;5.686;2023-08-06T02:13:00;14.50;99.90
56512;DHT22;42408;53.238;5.686;2023-08-06T02:15:25;14.50;99.90
56512;DHT22;42408;53.238;5.686;2023-08-06T02:17:51;14.50;99.90
56512;DHT22;42408;53.238;5.686;2023-08-06T02:20:17;14.50;99.90
56512;DHT22;42408;53.238;5.686;2023-08-06T02:22:42;14.50;99.90
56512;DHT22;42408;53.238;5.686;2023-08-06T02:25:08;14.50;99.90
56512;DHT22;42408;53.238;5.686;2023-08-06T02:27:34;14.40;99.90
56512;DHT22;42408;53.238;5.686;2023-08-06T02:30:00;14.40;99.90
56512;DHT22;42408;53.238;5.686;2023-08-06T02:32:26;14.40;99.90
56512;DHT22;42408;53.238;5.686;2023-08-06T02:34:52;14.40;99.90
56512;DHT22;42408;53.238;5.686;2023-08-06T02:37:17;14.40;99.90
56512;DHT22;42408;53.238;5.686;2023-08-06T02:39:43;14.30;99.90
56512;DHT22;42408;53.238;5.686;2023-08-06T02:42:09;14.40;99.90
56512;DHT22;42408;53.238;5.686;2023-08-06T02:44:35;14.30;99.90
56512;DHT22;42408;53.238;5.686;2023-08-06T02:47:01;14.30;99.90
56512;DHT22;42408;53.238;5.686;2023-08-06T02:49:27;14.30;99.90
56512;DHT22;42408;53.238;5.686;2023-08-06T02:51:52;14.20;99.90
56512;DHT22;42408;53.238;5.686;2023-08-06T02:54:18;14.20;99.90
56512;DHT22;42408;53.238;5.686;2023-08-06T02:56:45;14.20;99.90
56512;DHT22;42408;53.238;5.686;2023-08-06T02:59:12;14.20;99.90
56512;DHT22;42408;53.238;5.686;2023-08-06T03:01:38;14.20;99.90
56512;DHT22;42408;53.238;5.686;2023-08-06T03:04:04;14.20;99.90
56512;DHT22;42408;53.238;5.686;2023-08-06T03:06:29;14.20;99.90
56512;DHT22;42408;53.238;5.686;2023-08-06T03:08:55;14.20;99.90
56512;DHT22;42408;53.238;5.686;2023-08-06T03:11:21;14.20;99.90
56512;DHT22;42408;53.238;5.686;2023-08-06T03:13:47;14.20;99.90
56512;DHT22;42408;53.238;5.686;2023-08-06T03:16:13;14.20;99.90
56512;DHT22;42408;53.238;5.686;2023-08-06T03:18:39;14.20;99.90
56512;DHT22;42408;53.238;5.686;2023-08-06T03:21:04;14.20;99.90
56512;DHT22;42408;53.238;5.686;2023-08-06T03:23:30;14.20;99.90
56512;DHT22;42408;53.238;5.686;2023-08-06T03:25:56;14.30;99.90
56512;DHT22;42408;53.238;5.686;2023-08-06T03:28:21;14.30;99.90
56512;DHT22;42408;53.238;5.686;2023-08-06T03:30:47;14.30;99.90
56512;DHT22;42408;53.238;5.686;2023-08-06T03:33:13;14.40;99.90
56512;DHT22;42408;53.238;5.686;2023-08-06T03:35:39;14.30;99.90
56512;DHT22;42408;53.238;5.686;2023-08-06T03:38:05;14.30;99.90
56512;DHT22;42408;53.238;5.686;2023-08-06T03:40:31;14.30;99.90
56512;DHT22;42408;53.238;5.686;2023-08-06T03:42:56;14.30;99.90
56512;DHT22;42408;53.238;5.686;2023-08-06T03:45:22;14.30;99.90
56512;DHT22;42408;53.238;5.686;2023-08-06T03:47:48;14.40;99.90
56512;DHT22;42408;53.238;5.686;2023-08-06T03:50:13;14.40;99.90
56512;DHT22;42408;53.238;5.686;2023-08-06T03:52:39;14.40;99.90
56512;DHT22;42408;53.238;5.686;2023-08-06T03:55:05;14.40;99.90
56512;DHT22;42408;53.238;5.686;2023-08-06T03:57:31;14.30;99.90
56512;DHT22;42408;53.238;5.686;2023-08-06T03:59:56;14.40;99.90
56512;DHT22;42408;53.238;5.686;2023-08-06T04:02:22;14.30;99.90
56512;DHT22;42408;53.238;5.686;2023-08-06T04:04:48;14.40;99.90
56512;DHT22;42408;53.238;5.686;2023-08-06T04:07:14;14.40;99.90
56512;DHT22;42408;53.238;5.686;2023-08-06T04:09:58;14.40;99.90
56512;DHT22;42408;53.238;5.686;2023-08-06T04:12:24;14.40;99.90
56512;DHT22;42408;53.238;5.686;2023-08-06T04:14:51;14.40;99.90
56512;DHT22;42408;53.238;5.686;2023-08-06T04:17:18;14.40;99.90
56512;DHT22;42408;53.238;5.686;2023-08-06T04:19:47;14.30;99.90
56512;DHT22;42408;53.238;5.686;2023-08-06T04:22:13;14.30;99.90
56512;DHT22;42408;53.238;5.686;2023-08-06T04:24:39;14.30;99.90
56512;DHT22;42408;53.238;5.686;2023-08-06T04:27:05;14.30;99.90
56512;DHT22;42408;53.238;5.686;2023-08-06T04:29:30;14.30;99.90
56512;DHT22;42408;53.238;5.686;2023-08-06T04:31:56;14.30;99.90
56512;DHT22;42408;53.238;5.686;2023-08-06T04:34:22;14.30;99.90
56512;DHT22;42408;53.238;5.686;2023-08-06T04:36:48;14.30;99.90
56512;DHT22;42408;53.238;5.686;2023-08-06T04:39:14;14.30;99.90
56512;DHT22;42408;53.238;5.686;2023-08-06T04:41:39;14.30;99.90
56512;DHT22;42408;53.238;5.686;2023-08-06T04:44:05;14.30;99.90
56512;DHT22;42408;53.238;5.686;2023-08-06T04:46:31;14.30;99.90
56512;DHT22;42408;53.238;5.686;2023-08-06T04:48:56;14.30;99.90
56512;DHT22;42408;53.238;5.686;2023-08-06T04:51:22;14.30;99.90
56512;DHT22;42408;53.238;5.686;2023-08-06T04:53:47;14.30;99.90
56512;DHT22;42408;53.238;5.686;2023-08-06T04:56:13;14.30;99.90
56512;DHT22;42408;53.238;5.686;2023-08-06T04:58:39;14.30;99.90
56512;DHT22;42408;53.238;5.686;2023-08-06T05:01:04;14.40;99.90
56512;DHT22;42408;53.238;5.686;2023-08-06T05:03:30;14.30;99.90
56512;DHT22;42408;53.238;5.686;2023-08-06T05:05:56;14.40;99.90
56512;DHT22;42408;53.238;5.686;2023-08-06T05:08:21;14.40;99.90
56512;DHT22;42408;53.238;5.686;2023-08-06T05:10:47;14.40;99.90
56512;DHT22;42408;53.238;5.686;2023-08-06T05:13:12;14.40;99.90
56512;DHT22;42408;53.238;5.686;2023-08-06T05:15:39;14.40;99.90
56512;DHT22;42408;53.238;5.686;2023-08-06T05:18:08;14.50;99.90
56512;DHT22;42408;53.238;5.686;2023-08-06T05:20:36;14.50;99.90
56512;DHT22;42408;53.238;5.686;2023-08-06T05:23:03;14.50;99.90
56512;DHT22;42408;53.238;5.686;2023-08-06T05:25:28;14.50;99.90
56512;DHT22;42408;53.238;5.686;2023-08-06T05:27:54;14.60;99.90
56512;DHT22;42408;53.238;5.686;2023-08-06T05:30:19;14.60;99.90
56512;DHT22;42408;53.238;5.686;2023-08-06T05:32:45;14.60;99.90
56512;DHT22;42408;53.238;5.686;2023-08-06T05:35:11;14.70;99.90
56512;DHT22;42408;53.238;5.686;2023-08-06T05:37:36;14.70;99.90
56512;DHT22;42408;53.238;5.686;2023-08-06T05:40:02;14.70;99.90
56512;DHT22;42408;53.238;5.686;2023-08-06T05:42:29;14.80;99.90
56512;DHT22;42408;53.238;5.686;2023-08-06T05:44:55;14.80;99.90
56512;DHT22;42408;53.238;5.686;2023-08-06T05:47:21;14.80;99.90
56512;DHT22;42408;53.238;5.686;2023-08-06T05:49:46;14.90;99.90
56512;DHT22;42408;53.238;5.686;2023-08-06T05:52:12;14.90;99.90
56512;DHT22;42408;53.238;5.686;2023-08-06T05:54:38;15.00;99.90
56512;DHT22;42408;53.238;5.686;2023-08-06T05:57:04;15.00;99.90
56512;DHT22;42408;53.238;5.686;2023-08-06T05:59:29;15.00;99.90
56512;DHT22;42408;53.238;5.686;2023-08-06T06:01:55;15.10;99.90
56512;DHT22;42408;53.238;5.686;2023-08-06T06:04:21;15.10;99.90
56512;DHT22;42408;53.238;5.686;2023-08-06T06:06:47;15.10;99.90
56512;DHT22;42408;53.238;5.686;2023-08-06T06:09:12;15.20;99.90
56512;DHT22;42408;53.238;5.686;2023-08-06T06:11:38;15.20;99.90
56512;DHT22;42408;53.238;5.686;2023-08-06T06:14:04;15.20;99.90
56512;DHT22;42408;53.238;5.686;2023-08-06T06:16:29;15.30;99.90
56512;DHT22;42408;53.238;5.686;2023-08-06T06:18:55;15.30;99.90
56512;DHT22;42408;53.238;5.686;2023-08-06T06:21:23;15.30;99.90
56512;DHT22;42408;53.238;5.686;2023-08-06T06:23:49;15.30;99.90
56512;DHT22;42408;53.238;5.686;2023-08-06T06:26:17;15.30;99.90
56512;DHT22;42408;53.238;5.686;2023-08-06T06:28:42;15.40;99.90
56512;DHT22;42408;53.238;5.686;2023-08-06T06:31:08;15.40;99.90
56512;DHT22;42408;53.238;5.686;2023-08-06T06:33:34;15.40;99.90
56512;DHT22;42408;53.238;5.686;2023-08-06T06:36:00;15.50;99.90
56512;DHT22;42408;53.238;5.686;2023-08-06T06:38:28;15.50;99.90
56512;DHT22;42408;53.238;5.686;2023-08-06T06:40:57;15.50;99.90
56512;DHT22;42408;53.238;5.686;2023-08-06T06:43:24;15.60;99.90
56512;DHT22;42408;53.238;5.686;2023-08-06T06:45:53;15.60;99.90
56512;DHT22;42408;53.238;5.686;2023-08-06T06:48:19;15.60;99.90
56512;DHT22;42408;53.238;5.686;2023-08-06T06:50:48;15.70;99.90
56512;DHT22;42408;53.238;5.686;2023-08-06T06:53:14;15.80;99.90
56512;DHT22;42408;53.238;5.686;2023-08-06T06:55:40;15.80;99.90
56512;DHT22;42408;53.238;5.686;2023-08-06T06:58:05;15.80;99.90
56512;DHT22;42408;53.238;5.686;2023-08-06T07:00:31;15.90;99.90
56512;DHT22;42408;53.238;5.686;2023-08-06T07:02:57;15.90;99.90
56512;DHT22;42408;53.238;5.686;2023-08-06T07:05:22;16.00;99.90
56512;DHT22;42408;53.238;5.686;2023-08-06T07:07:48;16.10;99.90
56512;DHT22;42408;53.238;5.686;2023-08-06T07:10:14;16.20;99.90
56512;DHT22;42408;53.238;5.686;2023-08-06T07:12:39;16.20;99.90
56512;DHT22;42408;53.238;5.686;2023-08-06T07:15:06;16.30;99.90
56512;DHT22;42408;53.238;5.686;2023-08-06T07:17:32;16.40;99.90
56512;DHT22;42408;53.238;5.686;2023-08-06T07:19:57;16.50;99.90
56512;DHT22;42408;53.238;5.686;2023-08-06T07:22:23;16.50;99.90
56512;DHT22;42408;53.238;5.686;2023-08-06T07:24:49;16.50;99.90
56512;DHT22;42408;53.238;5.686;2023-08-06T07:27:15;16.60;99.90
56512;DHT22;42408;53.238;5.686;2023-08-06T07:29:40;16.60;99.90
56512;DHT22;42408;53.238;5.686;2023-08-06T07:32:07;16.70;99.90
56512;DHT22;42408;53.238;5.686;2023-08-06T07:34:33;16.70;99.90
56512;DHT22;42408;53.238;5.686;2023-08-06T07:36:58;16.80;99.90
56512;DHT22;42408;53.238;5.686;2023-08-06T07:39:24;16.80;99.90
56512;DHT22;42408;53.238;5.686;2023-08-06T07:41:50;16.80;99.90
56512;DHT22;42408;53.238;5.686;2023-08-06T07:44:17;16.90;99.90
56512;DHT22;42408;53.238;5.686;2023-08-06T07:46:42;16.90;99.90
56512;DHT22;42408;53.238;5.686;2023-08-06T07:49:09;16.90;99.90
56512;DHT22;42408;53.238;5.686;2023-08-06T07:51:36;16.90;99.90
56512;DHT22;42408;53.238;5.686;2023-08-06T07:54:02;17.00;99.90
56512;DHT22;42408;53.238;5.686;2023-08-06T07:56:28;17.00;99.90
56512;DHT22;42408;53.238;5.686;2023-08-06T07:58:54;17.10;99.90
56512;DHT22;42408;53.238;5.686;2023-08-06T08:01:20;17.10;99.90
56512;DHT22;42408;53.238;5.686;2023-08-06T08:03:45;17.20;99.90
56512;DHT22;42408;53.238;5.686;2023-08-06T08:06:11;17.30;99.90
56512;DHT22;42408;53.238;5.686;2023-08-06T08:08:37;17.30;99.90
56512;DHT22;42408;53.238;5.686;2023-08-06T08:11:04;17.40;99.90
56512;DHT22;42408;53.238;5.686;2023-08-06T08:13:30;17.50;99.90
56512;DHT22;42408;53.238;5.686;2023-08-06T08:15:59;17.50;99.90
56512;DHT22;42408;53.238;5.686;2023-08-06T08:18:25;17.60;99.90
56512;DHT22;42408;53.238;5.686;2023-08-06T08:20:51;17.60;99.90
56512;DHT22;42408;53.238;5.686;2023-08-06T08:23:17;17.70;99.90
56512;DHT22;42408;53.238;5.686;2023-08-06T08:25:42;17.80;99.90
56512;DHT22;42408;53.238;5.686;2023-08-06T08:28:08;17.80;99.90
56512;DHT22;42408;53.238;5.686;2023-08-06T08:30:34;17.90;99.90
56512;DHT22;42408;53.238;5.686;2023-08-06T08:32:59;18.00;99.90
56512;DHT22;42408;53.238;5.686;2023-08-06T08:35:25;18.00;99.90
56512;DHT22;42408;53.238;5.686;2023-08-06T08:37:51;18.10;99.90
56512;DHT22;42408;53.238;5.686;2023-08-06T08:40:17;18.10;99.90
56512;DHT22;42408;53.238;5.686;2023-08-06T08:42:43;18.20;99.90
56512;DHT22;42408;53.238;5.686;2023-08-06T08:45:15;18.30;99.90
56512;DHT22;42408;53.238;5.686;2023-08-06T08:47:43;18.40;99.90
56512;DHT22;42408;53.238;5.686;2023-08-06T08:50:10;18.40;99.90
56512;DHT22;42408;53.238;5.686;2023-08-06T08:52:38;18.50;99.90
56512;DHT22;42408;53.238;5.686;2023-08-06T08:55:06;18.50;99.90
56512;DHT22;42408;53.238;5.686;2023-08-06T08:57:32;18.60;99.90
56512;DHT22;42408;53.238;5.686;2023-08-06T08:59:58;18.60;99.90
56512;DHT22;42408;53.238;5.686;2023-08-06T09:02:25;18.70;99.90
56512;DHT22;42408;53.238;5.686;2023-08-06T09:04:54;18.80;99.90
56512;DHT22;42408;53.238;5.686;2023-08-06T09:07:21;18.90;99.90
56512;DHT22;42408;53.238;5.686;2023-08-06T09:09:49;19.00;99.90
56512;DHT22;42408;53.238;5.686;2023-08-06T09:12:16;19.10;99.90
56512;DHT22;42408;53.238;5.686;2023-08-06T09:14:42;19.20;99.90
56512;DHT22;42408;53.238;5.686;2023-08-06T09:17:09;19.30;99.90
56512;DHT22;42408;53.238;5.686;2023-08-06T09:19:36;19.40;99.90
56512;DHT22;42408;53.238;5.686;2023-08-06T09:22:02;19.50;99.90
56512;DHT22;42408;53.238;5.686;2023-08-06T09:24:28;19.60;99.90
56512;DHT22;42408;53.238;5.686;2023-08-06T09:26:54;19.60;99.90
56512;DHT22;42408;53.238;5.686;2023-08-06T09:29:20;19.80;99.90
56512;DHT22;42408;53.238;5.686;2023-08-06T09:31:48;19.90;99.90
56512;DHT22;42408;53.238;5.686;2023-08-06T09:34:18;20.00;99.90
56512;DHT22;42408;53.238;5.686;2023-08-06T09:36:49;20.20;99.90
56512;DHT22;42408;53.238;5.686;2023-08-06T09:39:17;20.30;99.90
56512;DHT22;42408;53.238;5.686;2023-08-06T09:41:43;20.50;99.90
56512;DHT22;42408;53.238;5.686;2023-08-06T09:44:20;20.60;99.90
56512;DHT22;42408;53.238;5.686;2023-08-06T09:46:58;20.70;99.90
56512;DHT22;42408;53.238;5.686;2023-08-06T09:49:28;20.80;99.90
56512;DHT22;42408;53.238;5.686;2023-08-06T09:51:54;20.80;99.90
56512;DHT22;42408;53.238;5.686;2023-08-06T09:54:24;20.90;99.90
56512;DHT22;42408;53.238;5.686;2023-08-06T09:56:52;21.00;99.90
56512;DHT22;42408;53.238;5.686;2023-08-06T09:59:18;21.00;99.90
56512;DHT22;42408;53.238;5.686;2023-08-06T10:01:45;21.10;99.90
56512;DHT22;42408;53.238;5.686;2023-08-06T10:04:11;21.20;99.90
56512;DHT22;42408;53.238;5.686;2023-08-06T10:06:38;21.30;99.90
56512;DHT22;42408;53.238;5.686;2023-08-06T10:09:04;21.50;99.90
56512;DHT22;42408;53.238;5.686;2023-08-06T10:11:30;21.70;99.90
56512;DHT22;42408;53.238;5.686;2023-08-06T10:14:13;21.90;99.90
56512;DHT22;42408;53.238;5.686;2023-08-06T10:16:41;22.00;99.90
56512;DHT22;42408;53.238;5.686;2023-08-06T10:19:09;22.20;99.90
56512;DHT22;42408;53.238;5.686;2023-08-06T10:21:38;22.40;99.90
56512;DHT22;42408;53.238;5.686;2023-08-06T10:24:07;22.30;99.90
56512;DHT22;42408;53.238;5.686;2023-08-06T10:26:36;22.20;99.90
56512;DHT22;42408;53.238;5.686;2023-08-06T10:29:02;22.10;99.90
56512;DHT22;42408;53.238;5.686;2023-08-06T10:31:54;21.90;99.90
56512;DHT22;42408;53.238;5.686;2023-08-06T10:34:20;21.70;99.90
56512;DHT22;42408;53.238;5.686;2023-08-06T10:36:46;21.50;99.90
56512;DHT22;42408;53.238;5.686;2023-08-06T10:39:15;21.40;99.90
56512;DHT22;42408;53.238;5.686;2023-08-06T10:41:44;21.20;99.90
56512;DHT22;42408;53.238;5.686;2023-08-06T10:44:10;21.00;99.90
56512;DHT22;42408;53.238;5.686;2023-08-06T10:46:37;20.80;99.90
56512;DHT22;42408;53.238;5.686;2023-08-06T10:49:04;20.60;99.90
56512;DHT22;42408;53.238;5.686;2023-08-06T10:51:29;20.50;99.90
56512;DHT22;42408;53.238;5.686;2023-08-06T10:53:55;20.30;99.90
56512;DHT22;42408;53.238;5.686;2023-08-06T10:56:24;20.10;99.90
56512;DHT22;42408;53.238;5.686;2023-08-06T10:58:57;19.90;99.90
56512;DHT22;42408;53.238;5.686;2023-08-06T11:01:23;19.80;99.90
56512;DHT22;42408;53.238;5.686;2023-08-06T11:03:49;19.70;99.90
56512;DHT22;42408;53.238;5.686;2023-08-06T11:06:20;19.60;99.90
56512;DHT22;42408;53.238;5.686;2023-08-06T11:08:53;19.60;99.90
56512;DHT22;42408;53.238;5.686;2023-08-06T11:11:20;19.60;99.90
56512;DHT22;42408;53.238;5.686;2023-08-06T11:13:50;19.50;99.90
56512;DHT22;42408;53.238;5.686;2023-08-06T11:16:22;19.50;99.90
56512;DHT22;42408;53.238;5.686;2023-08-06T11:18:50;19.50;99.90
56512;DHT22;42408;53.238;5.686;2023-08-06T11:21:20;19.50;99.90
56512;DHT22;42408;53.238;5.686;2023-08-06T11:23:46;19.60;99.90
56512;DHT22;42408;53.238;5.686;2023-08-06T11:26:12;19.60;99.90
56512;DHT22;42408;53.238;5.686;2023-08-06T11:28:37;19.70;99.90
56512;DHT22;42408;53.238;5.686;2023-08-06T11:31:03;19.80;99.90
56512;DHT22;42408;53.238;5.686;2023-08-06T11:33:29;19.90;99.90
56512;DHT22;42408;53.238;5.686;2023-08-06T11:35:57;20.10;99.90
56512;DHT22;42408;53.238;5.686;2023-08-06T11:38:29;20.20;99.90
56512;DHT22;42408;53.238;5.686;2023-08-06T11:40:55;20.40;99.90
56512;DHT22;42408;53.238;5.686;2023-08-06T11:43:21;20.50;99.90
56512;DHT22;42408;53.238;5.686;2023-08-06T11:45:51;20.60;99.90
56512;DHT22;42408;53.238;5.686;2023-08-06T11:48:19;20.70;99.90
56512;DHT22;42408;53.238;5.686;2023-08-06T11:50:45;20.90;99.90
56512;DHT22;42408;53.238;5.686;2023-08-06T11:53:13;21.00;99.90
56512;DHT22;42408;53.238;5.686;2023-08-06T11:55:40;21.00;99.90
56512;DHT22;42408;53.238;5.686;2023-08-06T11:58:06;20.90;99.90
56512;DHT22;42408;53.238;5.686;2023-08-06T12:00:32;20.80;99.90
56512;DHT22;42408;53.238;5.686;2023-08-06T12:02:57;20.70;99.90
56512;DHT22;42408;53.238;5.686;2023-08-06T12:05:28;20.60;99.90
56512;DHT22;42408;53.238;5.686;2023-08-06T12:07:59;20.50;99.90
56512;DHT22;42408;53.238;5.686;2023-08-06T12:10:26;20.40;99.90
56512;DHT22;42408;53.238;5.686;2023-08-06T12:12:53;20.30;99.90
56512;DHT22;42408;53.238;5.686;2023-08-06T12:15:19;20.20;99.90
56512;DHT22;42408;53.238;5.686;2023-08-06T12:17:44;20.20;99.90
56512;DHT22;42408;53.238;5.686;2023-08-06T12:20:10;20.10;99.90
56512;DHT22;42408;53.238;5.686;2023-08-06T12:22:37;20.10;99.90
56512;DHT22;42408;53.238;5.686;2023-08-06T12:25:13;20.10;99.90
56512;DHT22;42408;53.238;5.686;2023-08-06T12:27:43;20.00;99.90
56512;DHT22;42408;53.238;5.686;2023-08-06T12:30:10;20.00;99.90
56512;DHT22;42408;53.238;5.686;2023-08-06T12:32:37;20.00;99.90
56512;DHT22;42408;53.238;5.686;2023-08-06T12:35:03;20.00;99.90
56512;DHT22;42408;53.238;5.686;2023-08-06T12:37:28;20.00;99.90
56512;DHT22;42408;53.238;5.686;2023-08-06T12:39:54;20.00;99.90
56512;DHT22;42408;53.238;5.686;2023-08-06T12:42:20;20.00;99.90
56512;DHT22;42408;53.238;5.686;2023-08-06T12:44:46;20.00;99.90
56512;DHT22;42408;53.238;5.686;2023-08-06T12:47:13;20.10;99.90
56512;DHT22;42408;53.238;5.686;2023-08-06T12:49:39;20.10;99.90
56512;DHT22;42408;53.238;5.686;2023-08-06T12:52:05;20.10;99.90
56512;DHT22;42408;53.238;5.686;2023-08-06T12:54:32;20.10;99.90
56512;DHT22;42408;53.238;5.686;2023-08-06T12:57:05;20.00;99.90
56512;DHT22;42408;53.238;5.686;2023-08-06T12:59:31;20.10;99.90
56512;DHT22;42408;53.238;5.686;2023-08-06T13:01:58;20.00;99.90
56512;DHT22;42408;53.238;5.686;2023-08-06T13:04:24;20.00;99.90
56512;DHT22;42408;53.238;5.686;2023-08-06T13:06:50;20.00;99.90
56512;DHT22;42408;53.238;5.686;2023-08-06T13:09:16;20.00;99.90
56512;DHT22;42408;53.238;5.686;2023-08-06T13:11:42;20.00;99.90
56512;DHT22;42408;53.238;5.686;2023-08-06T13:14:09;20.10;99.90
56512;DHT22;42408;53.238;5.686;2023-08-06T13:16:37;20.00;99.90
56512;DHT22;42408;53.238;5.686;2023-08-06T13:19:04;20.10;99.90
56512;DHT22;42408;53.238;5.686;2023-08-06T13:23:58;20.00;99.90
56512;DHT22;42408;53.238;5.686;2023-08-06T13:26:24;19.80;99.90
56512;DHT22;42408;53.238;5.686;2023-08-06T13:28:49;19.80;99.90
56512;DHT22;42408;53.238;5.686;2023-08-06T13:31:16;19.70;99.90
56512;DHT22;42408;53.238;5.686;2023-08-06T13:33:42;19.70;99.90
56512;DHT22;42408;53.238;5.686;2023-08-06T13:36:07;19.70;99.90
56512;DHT22;42408;53.238;5.686;2023-08-06T13:38:33;19.60;99.90
56512;DHT22;42408;53.238;5.686;2023-08-06T13:40:58;19.60;99.90
56512;DHT22;42408;53.238;5.686;2023-08-06T13:43:24;19.60;99.90
56512;DHT22;42408;53.238;5.686;2023-08-06T13:45:50;19.60;99.90
56512;DHT22;42408;53.238;5.686;2023-08-06T13:48:15;19.60;99.90
56512;DHT22;42408;53.238;5.686;2023-08-06T13:50:41;19.60;99.90
56512;DHT22;42408;53.238;5.686;2023-08-06T13:53:07;19.70;99.90
56512;DHT22;42408;53.238;5.686;2023-08-06T13:55:32;19.70;99.90
56512;DHT22;42408;53.238;5.686;2023-08-06T13:57:58;19.70;99.90
56512;DHT22;42408;53.238;5.686;2023-08-06T14:00:24;19.70;99.90
56512;DHT22;42408;53.238;5.686;2023-08-06T14:02:49;19.70;99.90
56512;DHT22;42408;53.238;5.686;2023-08-06T14:05:15;19.80;99.90
56512;DHT22;42408;53.238;5.686;2023-08-06T14:07:41;19.80;99.90
56512;DHT22;42408;53.238;5.686;2023-08-06T14:10:07;19.90;99.90
56512;DHT22;42408;53.238;5.686;2023-08-06T14:12:34;19.90;99.90
56512;DHT22;42408;53.238;5.686;2023-08-06T14:15:00;19.90;99.90
56512;DHT22;42408;53.238;5.686;2023-08-06T14:17:26;20.00;99.90
56512;DHT22;42408;53.238;5.686;2023-08-06T14:19:51;19.90;99.90
56512;DHT22;42408;53.238;5.686;2023-08-06T14:22:17;19.90;99.90
56512;DHT22;42408;53.238;5.686;2023-08-06T14:24:43;19.90;99.90
56512;DHT22;42408;53.238;5.686;2023-08-06T14:27:08;20.00;99.90
56512;DHT22;42408;53.238;5.686;2023-08-06T14:29:34;20.00;99.90
56512;DHT22;42408;53.238;5.686;2023-08-06T14:32:00;20.10;99.90
56512;DHT22;42408;53.238;5.686;2023-08-06T14:34:25;20.20;99.90
56512;DHT22;42408;53.238;5.686;2023-08-06T14:36:53;20.20;99.90
56512;DHT22;42408;53.238;5.686;2023-08-06T14:39:18;20.20;99.90
56512;DHT22;42408;53.238;5.686;2023-08-06T14:41:44;20.30;99.90
56512;DHT22;42408;53.238;5.686;2023-08-06T14:44:09;20.40;99.90
56512;DHT22;42408;53.238;5.686;2023-08-06T14:46:35;20.50;99.90
56512;DHT22;42408;53.238;5.686;2023-08-06T14:49:01;20.50;99.90
56512;DHT22;42408;53.238;5.686;2023-08-06T14:51:26;20.60;99.90
56512;DHT22;42408;53.238;5.686;2023-08-06T14:53:53;20.60;99.90
56512;DHT22;42408;53.238;5.686;2023-08-06T14:56:18;20.60;99.90
56512;DHT22;42408;53.238;5.686;2023-08-06T14:58:44;20.60;99.90
56512;DHT22;42408;53.238;5.686;2023-08-06T15:01:10;20.60;99.90
56512;DHT22;42408;53.238;5.686;2023-08-06T15:03:36;20.50;99.90
56512;DHT22;42408;53.238;5.686;2023-08-06T15:06:01;20.40;99.90
56512;DHT22;42408;53.238;5.686;2023-08-06T15:08:27;20.30;99.90
56512;DHT22;42408;53.238;5.686;2023-08-06T15:10:53;20.30;99.90
56512;DHT22;42408;53.238;5.686;2023-08-06T15:13:19;20.30;99.90
56512;DHT22;42408;53.238;5.686;2023-08-06T15:15:49;20.20;99.90
56512;DHT22;42408;53.238;5.686;2023-08-06T15:18:15;20.20;99.90
56512;DHT22;42408;53.238;5.686;2023-08-06T15:20:41;20.10;99.90
56512;DHT22;42408;53.238;5.686;2023-08-06T15:23:07;20.00;99.90
56512;DHT22;42408;53.238;5.686;2023-08-06T15:25:32;19.90;99.90
56512;DHT22;42408;53.238;5.686;2023-08-06T15:27:58;19.90;99.90
56512;DHT22;42408;53.238;5.686;2023-08-06T15:30:24;19.80;99.90